createdAt,value
2022-11-17T00:00:34.945Z,2.95
2022-11-17T00:03:01.851Z,2.92
2022-11-17T00:05:28.699Z,2.86
2022-11-17T00:07:55.616Z,2.96
2022-11-17T00:10:22.641Z,3.08
2022-11-17T00:13:08.332Z,3.10
2022-11-17T00:15:35.214Z,3.19
2022-11-17T00:18:20.813Z,3.07
2022-11-17T00:21:06.617Z,3.00
2022-11-17T00:23:49.397Z,2.98
2022-11-17T00:26:16.930Z,3.08
2022-11-17T00:28:44.029Z,3.09
2022-11-17T00:31:30.195Z,2.90
2022-11-17T00:34:06.997Z,2.92
2022-11-17T00:36:38.358Z,2.82
2022-11-17T00:39:05.855Z,2.90
2022-11-17T00:41:32.990Z,2.87
2022-11-17T00:44:00.250Z,2.99
2022-11-17T00:46:27.415Z,2.97
2022-11-17T00:48:54.566Z,2.78
2022-11-17T00:51:21.745Z,2.78
2022-11-17T00:53:50.763Z,2.70
2022-11-17T00:56:17.973Z,2.69
2022-11-17T00:58:45.090Z,2.70
2022-11-17T01:01:12.020Z,2.82
2022-11-17T01:03:38.807Z,2.65
2022-11-17T01:06:06.594Z,2.67
2022-11-17T01:08:34.630Z,2.69
2022-11-17T01:11:11.269Z,2.58
2022-11-17T01:13:38.586Z,2.70
2022-11-17T01:16:06.548Z,2.73
2022-11-17T01:18:33.703Z,2.64
2022-11-17T01:21:19.842Z,2.57
2022-11-17T01:23:47.537Z,2.67
2022-11-17T01:26:16.598Z,2.64
2022-11-17T01:28:49.527Z,2.62
2022-11-17T01:31:32.636Z,2.72
2022-11-17T01:34:02.444Z,2.76
2022-11-17T01:37:00.418Z,2.66
2022-11-17T01:42:49.805Z,2.83
2022-11-17T01:45:23.801Z,2.88
2022-11-17T01:48:01.242Z,2.80
2022-11-17T01:50:42.678Z,2.73
2022-11-17T01:53:15.901Z,2.57
2022-11-17T01:55:51.087Z,2.52
2022-11-17T01:58:39.148Z,2.69
2022-11-17T02:01:18.233Z,2.56
2022-11-17T02:04:13.083Z,2.65
2022-11-17T02:06:39.945Z,2.52
2022-11-17T02:09:06.866Z,2.62
2022-11-17T02:11:50.154Z,2.79
2022-11-17T02:14:45.680Z,2.69
2022-11-17T02:17:44.659Z,2.71
2022-11-17T02:20:14.235Z,2.75
2022-11-17T02:23:19.017Z,2.62
2022-11-17T02:26:08.404Z,2.57
2022-11-17T02:28:46.463Z,2.62
2022-11-17T02:31:32.608Z,2.72
2022-11-17T02:34:21.929Z,2.66
2022-11-17T02:44:40.278Z,2.74
2022-11-17T02:50:54.262Z,2.71
2022-11-17T02:53:25.115Z,2.72
2022-11-17T02:56:47.326Z,2.72
2022-11-17T02:59:46.363Z,2.67
2022-11-17T03:05:47.426Z,2.66
2022-11-17T03:08:40.266Z,2.66
2022-11-17T03:12:10.538Z,2.80
2022-11-17T03:15:31.404Z,2.73
2022-11-17T03:18:24.419Z,2.59
2022-11-17T03:21:23.538Z,2.57
2022-11-17T03:24:24.781Z,2.49
2022-11-17T03:27:04.139Z,2.52
2022-11-17T03:30:07.838Z,2.52
2022-11-17T03:36:09.431Z,2.46
2022-11-17T03:39:08.468Z,2.59
2022-11-17T03:42:16.188Z,2.67
2022-11-17T03:44:46.090Z,2.60
2022-11-17T03:50:31.553Z,2.71
2022-11-17T03:57:01.066Z,2.61
2022-11-17T03:59:59.028Z,2.52
2022-11-17T04:02:54.112Z,2.59
2022-11-17T04:05:44.790Z,2.54
2022-11-17T04:08:52.952Z,2.51
2022-11-17T04:12:10.503Z,2.58
2022-11-17T04:15:06.109Z,2.56
2022-11-17T04:24:31.638Z,2.63
2022-11-17T04:27:57.345Z,2.56
2022-11-17T04:30:58.351Z,2.49
2022-11-17T04:46:20.613Z,2.53
2022-11-17T04:49:24.567Z,2.67
2022-11-17T04:52:16.281Z,2.61
2022-11-17T04:56:02.393Z,2.66
2022-11-17T05:19:41.604Z,2.64
2022-11-17T05:28:48.983Z,2.53
2022-11-17T05:31:31.698Z,2.60
2022-11-17T05:34:03.267Z,2.65
2022-11-17T06:23:15.430Z,2.78
2022-11-17T07:01:17.128Z,3.82
2022-11-17T07:03:44.070Z,3.68
2022-11-17T07:06:10.945Z,3.47
2022-11-17T07:08:40.394Z,3.39
2022-11-17T07:11:10.949Z,3.34
2022-11-17T07:13:37.714Z,3.25
2022-11-17T07:16:09.409Z,3.18
2022-11-17T07:18:37.104Z,3.09
2022-11-17T07:24:59.697Z,3.07
2022-11-17T07:45:31.823Z,3.14
2022-11-17T08:01:52.075Z,3.28
2022-11-17T08:04:20.863Z,3.22
2022-11-17T08:06:49.615Z,3.24
2022-11-17T08:09:18.156Z,3.29
2022-11-17T08:11:46.197Z,3.27
2022-11-17T08:14:14.788Z,3.24
2022-11-17T08:16:43.567Z,3.19
2022-11-17T08:19:12.342Z,3.31
2022-11-17T08:21:41.833Z,3.37
2022-11-17T08:24:10.323Z,3.26
2022-11-17T08:26:39.344Z,3.10
2022-11-17T08:29:08.349Z,3.20
2022-11-17T08:31:36.997Z,3.23
2022-11-17T08:34:05.238Z,3.22
2022-11-17T08:36:32.560Z,3.28
2022-11-17T08:39:00.439Z,3.17
2022-11-17T08:41:28.778Z,3.19
2022-11-17T08:43:57.553Z,3.28
2022-11-17T08:46:32.466Z,3.28
2022-11-17T08:49:01.557Z,3.62
2022-11-17T08:51:31.854Z,3.50
2022-11-17T08:54:13.982Z,3.36
2022-11-17T08:56:43.405Z,3.36
2022-11-17T08:59:12.475Z,3.27
2022-11-17T09:01:48.634Z,3.32
2022-11-17T09:14:45.567Z,3.30
2022-11-17T09:17:52.244Z,3.38
2022-11-17T09:20:45.509Z,3.43
2022-11-17T09:23:13.161Z,3.44
2022-11-17T09:25:40.213Z,3.44
2022-11-17T09:28:07.017Z,3.39
2022-11-17T09:30:34.217Z,3.46
2022-11-17T09:33:01.535Z,3.42
2022-11-17T09:35:28.757Z,3.43
2022-11-17T09:37:58.915Z,3.37
2022-11-17T09:40:25.653Z,3.44
2022-11-17T09:42:52.792Z,3.50
2022-11-17T09:45:23.386Z,3.47
2022-11-17T09:47:52.429Z,3.51
2022-11-17T09:50:29.953Z,3.50
2022-11-17T09:53:10.085Z,3.51
2022-11-17T09:55:38.070Z,3.47
2022-11-17T09:58:11.388Z,3.47
2022-11-17T10:00:39.326Z,3.49
2022-11-17T10:03:17.810Z,3.53
2022-11-17T10:05:45.211Z,3.46
2022-11-17T10:08:13.804Z,3.36
2022-11-17T10:10:48.475Z,3.46
2022-11-17T10:13:24.331Z,3.47
2022-11-17T10:16:01.537Z,3.44
2022-11-17T10:18:31.453Z,3.48
2022-11-17T10:21:01.092Z,3.49
2022-11-17T10:23:29.536Z,3.48
2022-11-17T10:25:57.576Z,3.51
2022-11-17T10:28:25.091Z,3.48
2022-11-17T10:30:56.492Z,3.49
2022-11-17T10:33:43.967Z,3.46
2022-11-17T10:36:17.967Z,3.46
2022-11-17T10:38:46.009Z,3.51
2022-11-17T10:41:13.777Z,3.48
2022-11-17T10:43:42.898Z,3.50
2022-11-17T10:46:14.360Z,3.50
2022-11-17T10:48:53.700Z,3.46
2022-11-17T10:51:20.630Z,3.55
2022-11-17T10:54:07.320Z,3.49
2022-11-17T10:56:39.050Z,3.55
2022-11-17T10:59:17.012Z,3.51
2022-11-17T11:01:45.168Z,3.54
2022-11-17T11:04:29.298Z,3.60
2022-11-17T11:07:11.590Z,3.60
2022-11-17T11:09:58.469Z,3.63
2022-11-17T11:12:26.784Z,3.62
2022-11-17T11:14:54.218Z,3.54
2022-11-17T11:17:20.824Z,3.57
2022-11-17T11:19:50.848Z,3.60
2022-11-17T11:22:21.226Z,3.57
2022-11-17T11:24:54.989Z,3.47
2022-11-17T11:27:40.591Z,3.41
2022-11-17T11:30:10.287Z,3.45
2022-11-17T11:32:55.488Z,3.46
2022-11-17T11:35:22.079Z,3.40
2022-11-17T11:37:52.973Z,3.37
2022-11-17T11:40:22.429Z,3.41
2022-11-17T11:43:00.927Z,3.46
2022-11-17T11:45:41.729Z,3.45
2022-11-17T11:48:14.677Z,3.39
2022-11-17T11:50:44.356Z,3.34
2022-11-17T11:53:29.931Z,3.42
2022-11-17T11:56:06.053Z,3.37
2022-11-17T11:58:32.705Z,3.30
2022-11-17T12:01:03.276Z,3.28
2022-11-17T12:03:39.695Z,3.40
2022-11-17T12:06:28.158Z,3.40
2022-11-17T12:08:56.630Z,3.41
2022-11-17T12:11:42.247Z,3.50
2022-11-17T12:14:11.763Z,3.41
2022-11-17T12:16:40.257Z,3.39
2022-11-17T12:19:26.844Z,3.37
2022-11-17T12:21:56.376Z,3.44
2022-11-17T12:24:27.424Z,3.44
2022-11-17T12:26:55.166Z,3.46
2022-11-17T12:29:22.702Z,3.46
2022-11-17T12:31:51.475Z,3.44
2022-11-17T12:34:26.978Z,3.47
2022-11-17T12:37:13.378Z,3.53
2022-11-17T12:39:59.431Z,3.56
2022-11-17T12:42:31.216Z,3.65
2022-11-17T12:45:02.052Z,3.64
2022-11-17T12:47:34.532Z,3.59
2022-11-17T12:50:08.460Z,3.59
2022-11-17T12:52:38.207Z,3.54
2022-11-17T12:55:17.431Z,3.53
2022-11-17T12:57:44.387Z,3.50
2022-11-17T13:00:21.140Z,3.46
2022-11-17T13:02:54.848Z,3.52
2022-11-17T13:05:22.285Z,3.51
2022-11-17T13:07:48.925Z,3.46
2022-11-17T13:10:31.246Z,3.50
2022-11-17T13:13:15.607Z,3.52
2022-11-17T13:15:42.808Z,3.43
2022-11-17T13:18:18.248Z,3.43
2022-11-17T13:20:46.322Z,3.48
2022-11-17T13:23:15.016Z,3.46
2022-11-17T13:25:42.002Z,3.51
2022-11-17T13:28:25.085Z,3.67
2022-11-17T13:30:51.665Z,4.15
2022-11-17T13:33:20.267Z,4.00
2022-11-17T13:35:46.917Z,3.77
2022-11-17T13:38:21.132Z,3.66
2022-11-17T13:40:51.239Z,3.49
2022-11-17T13:43:19.929Z,3.46
2022-11-17T13:45:50.118Z,3.41
2022-11-17T13:48:35.808Z,3.33
2022-11-17T13:51:18.081Z,3.23
2022-11-17T13:53:55.252Z,3.15
2022-11-17T13:56:26.488Z,3.16
2022-11-17T13:58:53.208Z,3.21
2022-11-17T14:01:24.354Z,3.20
2022-11-17T14:03:51.371Z,3.11
2022-11-17T14:06:18.133Z,3.15
2022-11-17T14:09:01.767Z,3.17
2022-11-17T14:11:28.439Z,3.09
2022-11-17T14:13:58.897Z,3.12
2022-11-17T14:16:29.504Z,3.08
2022-11-17T14:18:57.693Z,3.05
2022-11-17T14:21:24.321Z,2.99
2022-11-17T14:23:50.952Z,3.04
2022-11-17T14:26:21.901Z,3.09
2022-11-17T14:28:49.367Z,2.96
2022-11-17T14:31:16.022Z,3.00
2022-11-17T14:33:42.681Z,2.89
2022-11-17T14:36:13.607Z,2.73
2022-11-17T14:38:40.357Z,2.75
2022-11-17T14:41:07.182Z,2.85
2022-11-17T14:43:33.878Z,2.81
2022-11-17T14:46:00.539Z,2.86
2022-11-17T14:48:27.312Z,2.83
2022-11-17T14:50:57.605Z,2.78
2022-11-17T14:53:25.270Z,2.90
2022-11-17T14:55:52.168Z,2.89
2022-11-17T14:58:18.851Z,2.85
2022-11-17T15:00:45.484Z,2.80
2022-11-17T15:03:12.249Z,2.78
2022-11-17T15:05:43.337Z,2.75
2022-11-17T15:08:10.539Z,2.81
2022-11-17T15:10:37.193Z,2.88
2022-11-17T15:13:03.874Z,2.78
2022-11-17T15:15:30.540Z,2.78
2022-11-17T15:17:57.135Z,2.69
2022-11-17T15:20:23.964Z,2.78
2022-11-17T15:22:50.560Z,2.77
2022-11-17T15:25:17.231Z,2.72
2022-11-17T15:27:43.871Z,2.73
2022-11-17T16:04:10.345Z,2.65
2022-11-17T16:10:09.861Z,2.65
2022-11-17T16:15:47.958Z,2.69
2022-11-17T16:19:19.471Z,2.70
2022-11-17T16:29:09.076Z,2.68
2022-11-17T16:31:36.296Z,2.69
2022-11-17T16:34:15.741Z,2.65
2022-11-17T16:36:43.045Z,2.68
2022-11-17T16:39:17.791Z,2.73
2022-11-17T16:41:45.686Z,2.67
2022-11-17T16:44:13.138Z,2.70
2022-11-17T16:46:41.567Z,2.73
2022-11-17T16:49:09.841Z,2.67
2022-11-17T16:51:36.465Z,2.75
2022-11-17T16:54:06.608Z,2.61
2022-11-17T16:56:33.645Z,2.64
2022-11-17T16:59:00.433Z,2.67
2022-11-17T17:01:28.646Z,2.72
2022-11-17T17:03:58.150Z,2.62
2022-11-17T17:06:24.999Z,2.70
2022-11-17T17:09:20.625Z,2.66
2022-11-17T17:11:51.369Z,2.59
2022-11-17T17:14:18.040Z,2.58
2022-11-17T17:16:44.673Z,2.56
2022-11-17T17:19:11.723Z,2.73
2022-11-17T17:21:41.215Z,2.66
2022-11-17T17:24:07.987Z,2.62
2022-11-17T17:26:35.269Z,2.59
2022-11-17T17:29:02.396Z,2.65
2022-11-17T17:31:30.704Z,2.63
2022-11-17T17:33:57.453Z,2.58
2022-11-17T17:36:24.741Z,2.54
2022-11-17T17:38:55.360Z,2.54
2022-11-17T17:41:25.876Z,2.57
2022-11-17T17:43:57.264Z,2.56
2022-11-17T17:46:23.924Z,2.66
2022-11-17T17:48:50.550Z,2.65
2022-11-17T17:51:18.379Z,2.64
2022-11-17T17:53:45.088Z,2.55
2022-11-17T17:56:12.976Z,2.57
2022-11-17T17:58:42.675Z,2.49
2022-11-17T18:01:12.287Z,2.55
2022-11-17T18:03:39.415Z,2.44
2022-11-17T18:06:06.156Z,2.39
2022-11-17T18:08:36.422Z,2.40
2022-11-17T18:11:04.401Z,2.49
2022-11-17T18:13:31.704Z,2.42
2022-11-17T18:15:59.184Z,2.36
2022-11-17T18:18:25.823Z,2.37
2022-11-17T18:21:05.385Z,2.33
2022-11-17T18:23:34.374Z,2.36
2022-11-17T18:26:08.541Z,2.36
2022-11-17T18:28:35.437Z,2.36
2022-11-17T18:31:04.298Z,2.42
2022-11-17T18:33:31.068Z,2.43
2022-11-17T18:35:57.903Z,2.47
2022-11-17T18:38:27.465Z,2.40
2022-11-17T18:41:01.684Z,2.33
2022-11-17T18:43:29.754Z,2.36
2022-11-17T18:46:00.373Z,2.43
2022-11-17T18:48:27.069Z,2.28
2022-11-17T18:51:18.297Z,2.31
2022-11-17T18:53:40.822Z,2.28
2022-11-17T18:56:08.554Z,2.24
2022-11-17T18:58:37.517Z,2.22
2022-11-17T19:01:08.346Z,2.37
2022-11-17T19:03:35.464Z,2.21
2022-11-17T19:06:02.637Z,2.06
2022-11-17T19:08:30.444Z,2.00
2022-11-17T19:11:00.791Z,2.03
2022-11-17T19:13:33.859Z,1.93
2022-11-17T19:16:19.201Z,1.92
2022-11-17T19:18:48.785Z,2.88
2022-11-17T19:21:16.280Z,3.09
2022-11-17T19:23:49.662Z,3.19
2022-11-17T19:26:19.334Z,3.25
2022-11-17T19:28:55.219Z,2.99
2022-11-17T19:31:36.143Z,2.55
2022-11-17T19:34:25.080Z,2.45
2022-11-17T19:36:56.202Z,2.41
2022-11-17T19:39:22.837Z,2.14
2022-11-17T19:41:49.500Z,1.91
2022-11-17T19:44:16.224Z,1.88
2022-11-17T19:46:43.425Z,1.80
2022-11-17T19:49:10.617Z,1.77
2022-11-17T19:51:37.467Z,1.77
2022-11-17T19:54:04.997Z,1.76
2022-11-17T19:56:31.755Z,1.76
2022-11-17T19:58:58.471Z,1.62
2022-11-17T20:01:29.099Z,1.64
2022-11-17T20:03:56.804Z,1.41
2022-11-17T20:06:29.956Z,1.45
2022-11-17T20:09:01.386Z,1.57
2022-11-17T20:11:28.673Z,1.53
2022-11-17T20:13:55.759Z,1.53
2022-11-17T20:16:26.830Z,1.55
2022-11-17T20:18:54.914Z,1.70
2022-11-17T20:21:21.865Z,1.60
2022-11-17T20:23:48.684Z,1.69
2022-11-17T20:26:19.714Z,1.48
2022-11-17T20:28:49.037Z,1.55
2022-11-17T20:31:16.810Z,1.44
2022-11-17T20:33:43.567Z,1.29
2022-11-17T20:36:14.553Z,1.43
2022-11-17T20:38:41.471Z,1.48
2022-11-17T20:41:10.677Z,1.35
2022-11-17T20:43:39.470Z,1.32
2022-11-17T20:46:06.513Z,1.31
2022-11-17T20:48:35.393Z,1.26
2022-11-17T20:52:58.626Z,1.23
2022-11-17T20:54:15.976Z,1.29
2022-11-17T20:56:51.041Z,1.30
2022-11-17T20:59:20.214Z,1.27
2022-11-17T21:01:49.256Z,1.20
2022-11-17T21:04:15.917Z,1.23
2022-11-17T21:06:42.592Z,1.41
2022-11-17T21:09:09.774Z,1.21
2022-11-17T21:11:56.176Z,1.21
2022-11-17T21:14:25.966Z,1.31
2022-11-17T21:16:55.478Z,1.27
2022-11-17T21:19:22.265Z,1.29
2022-11-17T21:21:49.810Z,1.27
2022-11-17T21:24:16.539Z,1.20
2022-11-17T21:26:43.334Z,1.12
2022-11-17T21:29:10.381Z,1.10
2022-11-17T21:31:37.468Z,1.25
2022-11-17T21:34:07.613Z,1.19
2022-11-17T21:36:35.023Z,1.13
2022-11-17T21:39:01.786Z,1.30
2022-11-17T21:41:29.614Z,1.17
2022-11-17T21:43:58.256Z,1.17
2022-11-17T21:46:26.234Z,1.03
2022-11-17T21:48:53.757Z,0.95
2022-11-17T21:51:21.666Z,0.83
2022-11-17T21:53:52.221Z,1.04
2022-11-17T21:56:18.889Z,0.92
2022-11-17T21:58:45.491Z,0.98
2022-11-17T22:01:13.187Z,0.99
2022-11-17T22:03:40.543Z,1.03
2022-11-17T22:06:14.180Z,0.92
2022-11-17T22:08:41.900Z,0.89
2022-11-17T22:11:09.651Z,0.85
2022-11-17T22:13:36.519Z,0.76
2022-11-17T22:16:08.721Z,0.92
2022-11-17T22:18:35.523Z,0.77
2022-11-17T22:21:02.248Z,0.93
2022-11-17T22:23:29.082Z,0.98
2022-11-17T22:26:04.580Z,0.96
2022-11-17T22:28:33.548Z,0.93
2022-11-17T22:31:04.427Z,0.80
2022-11-17T22:33:31.068Z,0.84
2022-11-17T22:36:07.019Z,1.03
2022-11-17T22:38:33.656Z,1.00
2022-11-17T22:41:03.846Z,0.94
2022-11-17T22:43:30.552Z,0.77
2022-11-17T22:45:57.288Z,0.81
2022-11-17T22:48:24.382Z,0.76
2022-11-17T22:50:51.191Z,0.77
2022-11-17T22:53:17.993Z,0.84
2022-11-17T22:55:44.911Z,0.80
2022-11-17T22:58:11.629Z,0.74
2022-11-17T23:00:38.420Z,0.65
2022-11-17T23:03:05.219Z,0.70
2022-11-17T23:05:32.002Z,0.71
2022-11-17T23:07:58.622Z,0.85
2022-11-17T23:10:25.589Z,0.79
2022-11-17T23:12:52.273Z,0.94
2022-11-17T23:15:19.277Z,0.96
2022-11-17T23:17:46.643Z,0.94
2022-11-17T23:20:13.388Z,0.91
2022-11-17T23:22:40.038Z,0.95
2022-11-17T23:25:06.964Z,0.93
2022-11-17T23:27:33.594Z,1.06
2022-11-17T23:30:00.313Z,1.06
2022-11-17T23:32:26.897Z,0.92
2022-11-17T23:34:53.509Z,0.71
2022-11-17T23:37:20.557Z,0.89
2022-11-17T23:39:47.173Z,0.74
2022-11-17T23:42:13.816Z,0.80
2022-11-17T23:44:40.381Z,0.93
2022-11-17T23:47:07.036Z,0.79
2022-11-17T23:49:33.591Z,0.63
2022-11-17T23:52:00.255Z,0.79
2022-11-17T23:54:27.190Z,0.75
2022-11-17T23:56:53.764Z,0.80
2022-11-17T23:59:20.897Z,0.76
